sensor_id;sensor_type;location;lat;lon;timestamp;temperature;humidity
53053;DHT22;38934;52.690;6.184;2022-12-18T00:01:57;-3.00;99.90
53053;DHT22;38934;52.690;6.184;2022-12-18T00:04:25;-3.00;99.90
53053;DHT22;38934;52.690;6.184;2022-12-18T00:06:51;-3.10;99.90
53053;DHT22;38934;52.690;6.184;2022-12-18T00:09:18;-3.10;99.90
53053;DHT22;38934;52.690;6.184;2022-12-18T00:11:43;-3.10;99.90
53053;DHT22;38934;52.690;6.184;2022-12-18T00:14:11;-3.00;99.90
53053;DHT22;38934;52.690;6.184;2022-12-18T00:16:37;-3.00;99.90
53053;DHT22;38934;52.690;6.184;2022-12-18T00:19:03;-3.00;99.90
53053;DHT22;38934;52.690;6.184;2022-12-18T00:21:30;-3.10;99.90
53053;DHT22;38934;52.690;6.184;2022-12-18T00:23:58;-3.10;99.90
53053;DHT22;38934;52.690;6.184;2022-12-18T00:26:29;-3.10;99.90
53053;DHT22;38934;52.690;6.184;2022-12-18T00:28:58;-3.10;99.90
53053;DHT22;38934;52.690;6.184;2022-12-18T00:31:24;-3.10;99.90
53053;DHT22;38934;52.690;6.184;2022-12-18T00:33:50;-3.10;99.90
53053;DHT22;38934;52.690;6.184;2022-12-18T00:36:25;-3.10;99.90
53053;DHT22;38934;52.690;6.184;2022-12-18T00:38:52;-3.20;99.90
53053;DHT22;38934;52.690;6.184;2022-12-18T00:41:18;-3.20;99.90
53053;DHT22;38934;52.690;6.184;2022-12-18T00:44:05;-3.20;99.90
53053;DHT22;38934;52.690;6.184;2022-12-18T00:46:31;-3.30;99.90
53053;DHT22;38934;52.690;6.184;2022-12-18T00:48:57;-3.30;99.90
53053;DHT22;38934;52.690;6.184;2022-12-18T00:51:23;-3.30;99.90
53053;DHT22;38934;52.690;6.184;2022-12-18T00:53:50;-3.30;99.90
53053;DHT22;38934;52.690;6.184;2022-12-18T00:56:16;-3.40;99.90
53053;DHT22;38934;52.690;6.184;2022-12-18T00:58:41;-3.40;99.90
53053;DHT22;38934;52.690;6.184;2022-12-18T01:01:07;-3.50;99.90
53053;DHT22;38934;52.690;6.184;2022-12-18T01:03:32;-3.40;99.90
53053;DHT22;38934;52.690;6.184;2022-12-18T01:05:58;-3.50;99.90
53053;DHT22;38934;52.690;6.184;2022-12-18T01:08:24;-3.50;99.90
53053;DHT22;38934;52.690;6.184;2022-12-18T01:10:49;-3.50;99.90
53053;DHT22;38934;52.690;6.184;2022-12-18T01:13:15;-3.50;99.90
53053;DHT22;38934;52.690;6.184;2022-12-18T01:15:47;-3.50;99.90
53053;DHT22;38934;52.690;6.184;2022-12-18T01:18:12;-3.50;99.90
53053;DHT22;38934;52.690;6.184;2022-12-18T01:20:38;-3.50;99.90
53053;DHT22;38934;52.690;6.184;2022-12-18T01:23:03;-3.50;99.90
53053;DHT22;38934;52.690;6.184;2022-12-18T01:25:29;-3.60;99.90
53053;DHT22;38934;52.690;6.184;2022-12-18T01:27:54;-3.60;99.90
53053;DHT22;38934;52.690;6.184;2022-12-18T01:30:20;-3.60;99.90
53053;DHT22;38934;52.690;6.184;2022-12-18T01:32:45;-3.60;99.90
53053;DHT22;38934;52.690;6.184;2022-12-18T01:35:11;-3.60;99.90
53053;DHT22;38934;52.690;6.184;2022-12-18T01:37:37;-3.60;99.90
53053;DHT22;38934;52.690;6.184;2022-12-18T01:40:03;-3.70;99.90
53053;DHT22;38934;52.690;6.184;2022-12-18T01:42:29;-3.70;99.90
53053;DHT22;38934;52.690;6.184;2022-12-18T01:47:49;-3.70;99.90
53053;DHT22;38934;52.690;6.184;2022-12-18T01:50:27;-3.80;99.90
53053;DHT22;38934;52.690;6.184;2022-12-18T01:53:03;-3.80;99.90
53053;DHT22;38934;52.690;6.184;2022-12-18T01:55:32;-3.90;99.90
53053;DHT22;38934;52.690;6.184;2022-12-18T01:58:00;-3.90;99.90
53053;DHT22;38934;52.690;6.184;2022-12-18T02:00:27;-3.90;99.90
53053;DHT22;38934;52.690;6.184;2022-12-18T02:02:54;-4.00;99.90
53053;DHT22;38934;52.690;6.184;2022-12-18T02:05:47;-4.10;99.90
53053;DHT22;38934;52.690;6.184;2022-12-18T02:13:46;-4.30;99.90
53053;DHT22;38934;52.690;6.184;2022-12-18T02:18:48;-4.40;99.90
53053;DHT22;38934;52.690;6.184;2022-12-18T02:21:36;-4.50;99.90
53053;DHT22;38934;52.690;6.184;2022-12-18T02:27:06;-4.60;99.90
53053;DHT22;38934;52.690;6.184;2022-12-18T02:29:44;-4.60;99.90
53053;DHT22;38934;52.690;6.184;2022-12-18T02:32:15;-4.70;99.90
53053;DHT22;38934;52.690;6.184;2022-12-18T02:34:43;-4.70;99.90
53053;DHT22;38934;52.690;6.184;2022-12-18T02:37:13;-4.80;99.90
53053;DHT22;38934;52.690;6.184;2022-12-18T02:39:42;-4.90;99.90
53053;DHT22;38934;52.690;6.184;2022-12-18T02:42:08;-4.90;99.90
53053;DHT22;38934;52.690;6.184;2022-12-18T02:44:41;-4.90;99.90
53053;DHT22;38934;52.690;6.184;2022-12-18T02:47:10;-4.90;99.90
53053;DHT22;38934;52.690;6.184;2022-12-18T02:55:26;-5.00;99.90
53053;DHT22;38934;52.690;6.184;2022-12-18T02:58:11;-5.00;99.90
53053;DHT22;38934;52.690;6.184;2022-12-18T03:00:51;-5.10;99.90
53053;DHT22;38934;52.690;6.184;2022-12-18T03:03:35;-5.10;99.90
53053;DHT22;38934;52.690;6.184;2022-12-18T03:06:08;-5.10;99.90
53053;DHT22;38934;52.690;6.184;2022-12-18T03:08:42;-5.20;99.90
53053;DHT22;38934;52.690;6.184;2022-12-18T03:11:10;-5.20;99.90
53053;DHT22;38934;52.690;6.184;2022-12-18T03:13:51;-5.20;99.90
53053;DHT22;38934;52.690;6.184;2022-12-18T03:16:23;-5.30;99.90
53053;DHT22;38934;52.690;6.184;2022-12-18T03:18:55;-5.30;99.90
53053;DHT22;38934;52.690;6.184;2022-12-18T03:21:28;-5.30;99.90
53053;DHT22;38934;52.690;6.184;2022-12-18T03:23:55;-5.30;99.90
53053;DHT22;38934;52.690;6.184;2022-12-18T03:26:25;-5.40;99.90
53053;DHT22;38934;52.690;6.184;2022-12-18T03:28:57;-5.40;99.90
53053;DHT22;38934;52.690;6.184;2022-12-18T03:31:26;-5.40;99.90
53053;DHT22;38934;52.690;6.184;2022-12-18T03:33:56;-5.40;99.90
53053;DHT22;38934;52.690;6.184;2022-12-18T03:36:23;-5.40;99.90
53053;DHT22;38934;52.690;6.184;2022-12-18T03:38:49;-5.40;99.90
53053;DHT22;38934;52.690;6.184;2022-12-18T03:41:58;-5.50;99.90
53053;DHT22;38934;52.690;6.184;2022-12-18T03:44:44;-5.50;99.90
53053;DHT22;38934;52.690;6.184;2022-12-18T03:47:15;-5.50;99.90
53053;DHT22;38934;52.690;6.184;2022-12-18T03:49:57;-5.50;99.90
53053;DHT22;38934;52.690;6.184;2022-12-18T03:54:51;-5.60;99.90
53053;DHT22;38934;52.690;6.184;2022-12-18T03:57:23;-5.60;99.90
53053;DHT22;38934;52.690;6.184;2022-12-18T03:59:56;-5.60;99.90
53053;DHT22;38934;52.690;6.184;2022-12-18T04:02:23;-5.60;99.90
53053;DHT22;38934;52.690;6.184;2022-12-18T04:04:52;-5.50;99.90
53053;DHT22;38934;52.690;6.184;2022-12-18T04:07:20;-5.50;99.90
53053;DHT22;38934;52.690;6.184;2022-12-18T04:09:48;-5.50;99.90
53053;DHT22;38934;52.690;6.184;2022-12-18T04:12:14;-5.50;99.90
53053;DHT22;38934;52.690;6.184;2022-12-18T04:14:39;-5.50;99.90
53053;DHT22;38934;52.690;6.184;2022-12-18T04:17:05;-5.50;99.90
53053;DHT22;38934;52.690;6.184;2022-12-18T04:19:31;-5.60;99.90
53053;DHT22;38934;52.690;6.184;2022-12-18T04:21:56;-5.60;99.90
53053;DHT22;38934;52.690;6.184;2022-12-18T04:24:22;-5.60;99.90
53053;DHT22;38934;52.690;6.184;2022-12-18T04:26:47;-5.60;99.90
53053;DHT22;38934;52.690;6.184;2022-12-18T04:29:13;-5.60;99.90
53053;DHT22;38934;52.690;6.184;2022-12-18T04:31:39;-5.60;99.90
53053;DHT22;38934;52.690;6.184;2022-12-18T04:34:04;-5.70;99.90
53053;DHT22;38934;52.690;6.184;2022-12-18T04:36:30;-5.70;99.90
53053;DHT22;38934;52.690;6.184;2022-12-18T04:38:56;-5.70;99.90
53053;DHT22;38934;52.690;6.184;2022-12-18T04:41:23;-5.70;99.90
53053;DHT22;38934;52.690;6.184;2022-12-18T04:43:48;-5.70;99.90
53053;DHT22;38934;52.690;6.184;2022-12-18T04:46:14;-5.80;99.90
53053;DHT22;38934;52.690;6.184;2022-12-18T04:48:40;-5.70;99.90
53053;DHT22;38934;52.690;6.184;2022-12-18T04:51:06;-5.80;99.90
53053;DHT22;38934;52.690;6.184;2022-12-18T04:53:33;-5.70;99.90
53053;DHT22;38934;52.690;6.184;2022-12-18T04:56:07;-5.80;99.90
53053;DHT22;38934;52.690;6.184;2022-12-18T04:58:34;-5.70;99.90
53053;DHT22;38934;52.690;6.184;2022-12-18T05:01:03;-5.80;99.90
53053;DHT22;38934;52.690;6.184;2022-12-18T05:03:29;-5.80;99.90
53053;DHT22;38934;52.690;6.184;2022-12-18T05:05:55;-5.80;99.90
53053;DHT22;38934;52.690;6.184;2022-12-18T05:08:21;-5.80;99.90
53053;DHT22;38934;52.690;6.184;2022-12-18T05:10:46;-5.80;99.90
53053;DHT22;38934;52.690;6.184;2022-12-18T05:13:12;-5.80;99.90
53053;DHT22;38934;52.690;6.184;2022-12-18T05:15:38;-5.80;99.90
53053;DHT22;38934;52.690;6.184;2022-12-18T05:18:04;-5.80;99.90
53053;DHT22;38934;52.690;6.184;2022-12-18T05:20:30;-5.90;99.90
53053;DHT22;38934;52.690;6.184;2022-12-18T05:22:56;-5.80;99.90
53053;DHT22;38934;52.690;6.184;2022-12-18T05:25:22;-5.80;99.90
53053;DHT22;38934;52.690;6.184;2022-12-18T05:27:48;-5.90;99.90
53053;DHT22;38934;52.690;6.184;2022-12-18T05:30:14;-5.80;99.90
53053;DHT22;38934;52.690;6.184;2022-12-18T05:32:41;-5.80;99.90
53053;DHT22;38934;52.690;6.184;2022-12-18T05:35:09;-5.90;99.90
53053;DHT22;38934;52.690;6.184;2022-12-18T05:37:35;-5.00;99.90
53053;DHT22;38934;52.690;6.184;2022-12-18T05:40:03;-5.90;99.90
53053;DHT22;38934;52.690;6.184;2022-12-18T05:42:29;-5.80;99.90
53053;DHT22;38934;52.690;6.184;2022-12-18T05:44:54;-5.80;99.90
53053;DHT22;38934;52.690;6.184;2022-12-18T05:47:20;-5.80;99.90
53053;DHT22;38934;52.690;6.184;2022-12-18T05:49:45;-5.80;99.90
53053;DHT22;38934;52.690;6.184;2022-12-18T05:52:12;-5.90;99.90
53053;DHT22;38934;52.690;6.184;2022-12-18T05:54:38;-5.90;99.90
53053;DHT22;38934;52.690;6.184;2022-12-18T05:57:04;-5.90;99.90
53053;DHT22;38934;52.690;6.184;2022-12-18T05:59:30;-5.90;99.90
53053;DHT22;38934;52.690;6.184;2022-12-18T06:01:55;-5.90;99.90
53053;DHT22;38934;52.690;6.184;2022-12-18T06:04:21;-6.00;99.90
53053;DHT22;38934;52.690;6.184;2022-12-18T06:06:47;-6.00;99.90
53053;DHT22;38934;52.690;6.184;2022-12-18T06:09:14;-6.10;99.90
53053;DHT22;38934;52.690;6.184;2022-12-18T06:11:40;-6.10;99.90
53053;DHT22;38934;52.690;6.184;2022-12-18T06:14:06;-6.20;99.90
53053;DHT22;38934;52.690;6.184;2022-12-18T06:16:32;-6.20;99.90
53053;DHT22;38934;52.690;6.184;2022-12-18T06:18:59;-6.20;99.90
53053;DHT22;38934;52.690;6.184;2022-12-18T06:21:25;-6.20;99.90
53053;DHT22;38934;52.690;6.184;2022-12-18T06:23:51;-6.30;99.90
53053;DHT22;38934;52.690;6.184;2022-12-18T06:26:18;-6.30;99.90
53053;DHT22;38934;52.690;6.184;2022-12-18T06:28:43;-6.30;99.90
53053;DHT22;38934;52.690;6.184;2022-12-18T06:31:09;-6.30;99.90
53053;DHT22;38934;52.690;6.184;2022-12-18T06:33:36;-6.40;99.90
53053;DHT22;38934;52.690;6.184;2022-12-18T06:36:12;-6.40;99.90
53053;DHT22;38934;52.690;6.184;2022-12-18T06:38:40;-6.50;99.90
53053;DHT22;38934;52.690;6.184;2022-12-18T06:41:08;-6.50;99.90
53053;DHT22;38934;52.690;6.184;2022-12-18T06:43:34;-6.50;99.90
53053;DHT22;38934;52.690;6.184;2022-12-18T06:46:01;-6.50;99.90
53053;DHT22;38934;52.690;6.184;2022-12-18T06:48:26;-6.60;99.90
53053;DHT22;38934;52.690;6.184;2022-12-18T06:50:52;-6.60;99.90
53053;DHT22;38934;52.690;6.184;2022-12-18T06:53:18;-6.60;99.90
53053;DHT22;38934;52.690;6.184;2022-12-18T06:55:43;-6.60;99.90
53053;DHT22;38934;52.690;6.184;2022-12-18T06:58:09;-6.60;99.90
53053;DHT22;38934;52.690;6.184;2022-12-18T07:00:36;-6.60;99.90
53053;DHT22;38934;52.690;6.184;2022-12-18T07:03:01;-6.60;99.90
53053;DHT22;38934;52.690;6.184;2022-12-18T07:05:27;-6.60;99.90
53053;DHT22;38934;52.690;6.184;2022-12-18T07:07:54;-6.70;99.90
53053;DHT22;38934;52.690;6.184;2022-12-18T07:10:19;-6.70;99.90
53053;DHT22;38934;52.690;6.184;2022-12-18T07:12:45;-6.80;99.90
53053;DHT22;38934;52.690;6.184;2022-12-18T07:15:12;-5.10;99.90
53053;DHT22;38934;52.690;6.184;2022-12-18T07:17:38;-5.60;99.90
53053;DHT22;38934;52.690;6.184;2022-12-18T07:20:04;-6.80;99.90
53053;DHT22;38934;52.690;6.184;2022-12-18T07:22:30;-6.80;99.90
53053;DHT22;38934;52.690;6.184;2022-12-18T07:24:56;-5.80;99.90
53053;DHT22;38934;52.690;6.184;2022-12-18T07:27:22;-6.80;99.90
53053;DHT22;38934;52.690;6.184;2022-12-18T07:29:48;-6.80;99.90
53053;DHT22;38934;52.690;6.184;2022-12-18T07:32:16;-6.80;99.90
53053;DHT22;38934;52.690;6.184;2022-12-18T07:34:41;-6.80;99.90
53053;DHT22;38934;52.690;6.184;2022-12-18T07:37:07;-6.80;99.90
53053;DHT22;38934;52.690;6.184;2022-12-18T07:39:33;-5.70;99.90
53053;DHT22;38934;52.690;6.184;2022-12-18T07:41:59;-6.80;99.90
53053;DHT22;38934;52.690;6.184;2022-12-18T07:44:44;-6.80;99.90
53053;DHT22;38934;52.690;6.184;2022-12-18T07:47:09;-6.70;99.90
53053;DHT22;38934;52.690;6.184;2022-12-18T07:49:35;-5.30;99.90
53053;DHT22;38934;52.690;6.184;2022-12-18T07:52:01;-6.70;99.90
53053;DHT22;38934;52.690;6.184;2022-12-18T07:54:27;-6.70;99.90
53053;DHT22;38934;52.690;6.184;2022-12-18T07:56:52;-6.70;99.90
53053;DHT22;38934;52.690;6.184;2022-12-18T07:59:18;-6.60;99.90
53053;DHT22;38934;52.690;6.184;2022-12-18T08:01:44;-6.60;99.90
53053;DHT22;38934;52.690;6.184;2022-12-18T08:04:09;-6.60;99.90
53053;DHT22;38934;52.690;6.184;2022-12-18T08:06:37;-6.50;99.90
53053;DHT22;38934;52.690;6.184;2022-12-18T08:09:02;-6.50;99.90
53053;DHT22;38934;52.690;6.184;2022-12-18T08:11:28;-6.50;99.90
53053;DHT22;38934;52.690;6.184;2022-12-18T08:13:55;-6.50;99.90
53053;DHT22;38934;52.690;6.184;2022-12-18T08:16:21;-6.40;99.90
53053;DHT22;38934;52.690;6.184;2022-12-18T08:18:48;-6.40;99.90
53053;DHT22;38934;52.690;6.184;2022-12-18T08:21:19;-6.20;99.90
53053;DHT22;38934;52.690;6.184;2022-12-18T08:23:46;-6.30;99.90
53053;DHT22;38934;52.690;6.184;2022-12-18T08:26:12;-6.30;99.90
53053;DHT22;38934;52.690;6.184;2022-12-18T08:28:39;-6.20;99.90
53053;DHT22;38934;52.690;6.184;2022-12-18T08:31:05;-6.20;99.90
53053;DHT22;38934;52.690;6.184;2022-12-18T08:33:31;-6.10;99.90
53053;DHT22;38934;52.690;6.184;2022-12-18T08:35:58;-6.10;99.90
53053;DHT22;38934;52.690;6.184;2022-12-18T08:38:24;-6.10;99.90
53053;DHT22;38934;52.690;6.184;2022-12-18T08:40:53;-6.10;99.90
53053;DHT22;38934;52.690;6.184;2022-12-18T08:43:19;-6.00;99.90
53053;DHT22;38934;52.690;6.184;2022-12-18T08:46:03;-6.00;99.90
53053;DHT22;38934;52.690;6.184;2022-12-18T08:48:30;-5.90;99.90
53053;DHT22;38934;52.690;6.184;2022-12-18T08:50:57;-5.90;99.90
53053;DHT22;38934;52.690;6.184;2022-12-18T08:53:23;-5.80;99.90
53053;DHT22;38934;52.690;6.184;2022-12-18T08:55:52;-5.80;99.90
53053;DHT22;38934;52.690;6.184;2022-12-18T08:58:18;-5.70;99.90
53053;DHT22;38934;52.690;6.184;2022-12-18T09:00:44;-5.60;99.90
53053;DHT22;38934;52.690;6.184;2022-12-18T09:03:14;-5.60;99.90
53053;DHT22;38934;52.690;6.184;2022-12-18T09:05:40;-5.50;99.90
53053;DHT22;38934;52.690;6.184;2022-12-18T09:08:06;-5.50;99.90
53053;DHT22;38934;52.690;6.184;2022-12-18T09:10:32;-5.40;99.90
53053;DHT22;38934;52.690;6.184;2022-12-18T09:12:58;-5.30;99.90
53053;DHT22;38934;52.690;6.184;2022-12-18T09:15:24;-5.20;99.90
53053;DHT22;38934;52.690;6.184;2022-12-18T09:17:49;-5.10;99.90
53053;DHT22;38934;52.690;6.184;2022-12-18T09:20:16;-5.00;99.90
53053;DHT22;38934;52.690;6.184;2022-12-18T09:22:41;-4.90;99.90
53053;DHT22;38934;52.690;6.184;2022-12-18T09:25:07;-4.90;99.90
53053;DHT22;38934;52.690;6.184;2022-12-18T09:27:34;-4.80;99.90
53053;DHT22;38934;52.690;6.184;2022-12-18T09:29:59;-4.70;99.90
53053;DHT22;38934;52.690;6.184;2022-12-18T09:32:25;-4.60;99.90
53053;DHT22;38934;52.690;6.184;2022-12-18T09:34:50;-4.60;99.90
53053;DHT22;38934;52.690;6.184;2022-12-18T09:37:16;-4.50;99.90
53053;DHT22;38934;52.690;6.184;2022-12-18T09:39:42;-4.40;99.90
53053;DHT22;38934;52.690;6.184;2022-12-18T09:42:12;-4.30;99.90
53053;DHT22;38934;52.690;6.184;2022-12-18T09:44:47;-4.40;99.90
53053;DHT22;38934;52.690;6.184;2022-12-18T09:47:25;-4.20;99.90
53053;DHT22;38934;52.690;6.184;2022-12-18T09:50:04;-4.20;99.90
53053;DHT22;38934;52.690;6.184;2022-12-18T09:52:37;-4.10;99.90
53053;DHT22;38934;52.690;6.184;2022-12-18T09:58:02;-4.00;99.90
53053;DHT22;38934;52.690;6.184;2022-12-18T10:00:30;-4.00;99.90
53053;DHT22;38934;52.690;6.184;2022-12-18T10:03:01;-4.00;99.90
53053;DHT22;38934;52.690;6.184;2022-12-18T10:05:56;-3.90;99.90
53053;DHT22;38934;52.690;6.184;2022-12-18T10:11:24;-3.80;99.90
53053;DHT22;38934;52.690;6.184;2022-12-18T10:14:20;-3.80;99.90
53053;DHT22;38934;52.690;6.184;2022-12-18T10:19:55;-3.70;99.90
53053;DHT22;38934;52.690;6.184;2022-12-18T10:27:58;-3.50;99.90
53053;DHT22;38934;52.690;6.184;2022-12-18T10:30:26;-3.40;99.90
53053;DHT22;38934;52.690;6.184;2022-12-18T10:32:52;-3.40;99.90
53053;DHT22;38934;52.690;6.184;2022-12-18T10:35:21;-3.30;99.90
53053;DHT22;38934;52.690;6.184;2022-12-18T10:40:58;-3.10;99.90
53053;DHT22;38934;52.690;6.184;2022-12-18T10:43:26;-3.00;99.90
53053;DHT22;38934;52.690;6.184;2022-12-18T10:46:20;-3.00;99.90
53053;DHT22;38934;52.690;6.184;2022-12-18T10:51:32;-2.80;99.90
53053;DHT22;38934;52.690;6.184;2022-12-18T10:54:18;-2.80;99.90
53053;DHT22;38934;52.690;6.184;2022-12-18T10:56:44;-2.70;99.90
53053;DHT22;38934;52.690;6.184;2022-12-18T10:59:13;-2.70;99.90
53053;DHT22;38934;52.690;6.184;2022-12-18T11:01:54;-2.60;99.90
53053;DHT22;38934;52.690;6.184;2022-12-18T11:04:25;-2.60;99.90
53053;DHT22;38934;52.690;6.184;2022-12-18T11:07:03;-2.50;99.90
53053;DHT22;38934;52.690;6.184;2022-12-18T11:09:32;-2.40;99.90
53053;DHT22;38934;52.690;6.184;2022-12-18T11:12:03;-2.40;99.90
53053;DHT22;38934;52.690;6.184;2022-12-18T11:14:50;-2.40;99.90
53053;DHT22;38934;52.690;6.184;2022-12-18T11:17:23;-1.80;99.90
53053;DHT22;38934;52.690;6.184;2022-12-18T11:19:55;-2.30;99.90
53053;DHT22;38934;52.690;6.184;2022-12-18T11:22:32;-2.20;99.90
53053;DHT22;38934;52.690;6.184;2022-12-18T11:25:19;-2.20;99.90
53053;DHT22;38934;52.690;6.184;2022-12-18T11:28:00;-2.10;99.90
53053;DHT22;38934;52.690;6.184;2022-12-18T11:30:29;-2.10;99.90
53053;DHT22;38934;52.690;6.184;2022-12-18T11:35:52;-2.00;99.90
53053;DHT22;38934;52.690;6.184;2022-12-18T11:38:27;-2.00;99.90
53053;DHT22;38934;52.690;6.184;2022-12-18T11:43:55;-1.90;99.90
53053;DHT22;38934;52.690;6.184;2022-12-18T11:46:31;-1.90;99.90
53053;DHT22;38934;52.690;6.184;2022-12-18T11:51:49;-1.80;99.90
53053;DHT22;38934;52.690;6.184;2022-12-18T11:54:16;-0.90;99.90
53053;DHT22;38934;52.690;6.184;2022-12-18T12:05:18;-1.80;99.90
53053;DHT22;38934;52.690;6.184;2022-12-18T12:08:13;-1.70;99.90
53053;DHT22;38934;52.690;6.184;2022-12-18T12:10:46;-1.70;99.90
53053;DHT22;38934;52.690;6.184;2022-12-18T12:14:34;-1.70;99.90
53053;DHT22;38934;52.690;6.184;2022-12-18T12:22:39;-1.60;99.90
53053;DHT22;38934;52.690;6.184;2022-12-18T12:30:43;-1.50;99.90
53053;DHT22;38934;52.690;6.184;2022-12-18T12:33:42;-1.50;99.90
53053;DHT22;38934;52.690;6.184;2022-12-18T12:39:11;-1.40;99.90
53053;DHT22;38934;52.690;6.184;2022-12-18T12:41:41;-1.40;99.90
53053;DHT22;38934;52.690;6.184;2022-12-18T12:44:29;-1.30;99.90
53053;DHT22;38934;52.690;6.184;2022-12-18T12:46:59;-1.30;99.90
53053;DHT22;38934;52.690;6.184;2022-12-18T12:49:32;-1.30;99.90
53053;DHT22;38934;52.690;6.184;2022-12-18T12:52:04;-0.20;99.90
53053;DHT22;38934;52.690;6.184;2022-12-18T12:54:32;-1.20;99.90
53053;DHT22;38934;52.690;6.184;2022-12-18T13:00:00;-1.20;99.90
53053;DHT22;38934;52.690;6.184;2022-12-18T13:15:40;-1.10;99.90
53053;DHT22;38934;52.690;6.184;2022-12-18T13:18:22;-1.10;99.90
53053;DHT22;38934;52.690;6.184;2022-12-18T13:21:28;-1.10;99.90
53053;DHT22;38934;52.690;6.184;2022-12-18T13:23:55;-1.10;99.90
53053;DHT22;38934;52.690;6.184;2022-12-18T13:28:53;-1.10;99.90
53053;DHT22;38934;52.690;6.184;2022-12-18T13:36:39;-1.10;99.90
53053;DHT22;38934;52.690;6.184;2022-12-18T13:41:45;-1.00;99.90
53053;DHT22;38934;52.690;6.184;2022-12-18T13:44:25;-0.80;99.90
53053;DHT22;38934;52.690;6.184;2022-12-18T13:46:51;-1.00;99.90
53053;DHT22;38934;52.690;6.184;2022-12-18T13:49:40;-1.00;99.90
53053;DHT22;38934;52.690;6.184;2022-12-18T13:52:33;-1.00;99.90
53053;DHT22;38934;52.690;6.184;2022-12-18T13:55:02;-1.00;99.90
53053;DHT22;38934;52.690;6.184;2022-12-18T13:57:33;-1.00;99.90
53053;DHT22;38934;52.690;6.184;2022-12-18T14:02:44;-1.10;99.90
53053;DHT22;38934;52.690;6.184;2022-12-18T14:05:31;-1.10;99.90
53053;DHT22;38934;52.690;6.184;2022-12-18T14:08:06;-1.10;99.90
53053;DHT22;38934;52.690;6.184;2022-12-18T14:10:33;-1.10;99.90
53053;DHT22;38934;52.690;6.184;2022-12-18T14:13:05;-1.10;99.90
53053;DHT22;38934;52.690;6.184;2022-12-18T14:15:42;-1.10;99.90
53053;DHT22;38934;52.690;6.184;2022-12-18T14:20:57;-1.10;99.90
53053;DHT22;38934;52.690;6.184;2022-12-18T14:26:02;-1.20;99.90
53053;DHT22;38934;52.690;6.184;2022-12-18T14:28:30;-1.20;99.90
53053;DHT22;38934;52.690;6.184;2022-12-18T14:30:55;-1.20;99.90
53053;DHT22;38934;52.690;6.184;2022-12-18T14:33:27;-1.20;99.90
53053;DHT22;38934;52.690;6.184;2022-12-18T14:36:04;-1.20;99.90
53053;DHT22;38934;52.690;6.184;2022-12-18T14:38:31;-1.20;99.90
53053;DHT22;38934;52.690;6.184;2022-12-18T14:41:12;-1.30;99.90
53053;DHT22;38934;52.690;6.184;2022-12-18T14:43:43;-1.30;99.90
53053;DHT22;38934;52.690;6.184;2022-12-18T14:46:38;-1.30;99.90
53053;DHT22;38934;52.690;6.184;2022-12-18T14:49:29;-1.30;99.90
53053;DHT22;38934;52.690;6.184;2022-12-18T14:52:04;-1.30;99.90
53053;DHT22;38934;52.690;6.184;2022-12-18T14:54:31;-1.30;99.90
53053;DHT22;38934;52.690;6.184;2022-12-18T14:57:23;-1.30;99.90
53053;DHT22;38934;52.690;6.184;2022-12-18T14:59:50;-1.30;99.90
53053;DHT22;38934;52.690;6.184;2022-12-18T15:02:23;-1.30;99.90
53053;DHT22;38934;52.690;6.184;2022-12-18T15:05:14;-1.30;99.90
53053;DHT22;38934;52.690;6.184;2022-12-18T15:07:46;-1.30;99.90
53053;DHT22;38934;52.690;6.184;2022-12-18T15:23:23;-1.30;99.90
53053;DHT22;38934;52.690;6.184;2022-12-18T15:28:23;-1.30;99.90
53053;DHT22;38934;52.690;6.184;2022-12-18T15:33:36;-1.30;99.90
53053;DHT22;38934;52.690;6.184;2022-12-18T15:36:10;-1.30;99.90
53053;DHT22;38934;52.690;6.184;2022-12-18T15:38:35;-1.30;99.90
53053;DHT22;38934;52.690;6.184;2022-12-18T15:41:01;-1.30;99.90
53053;DHT22;38934;52.690;6.184;2022-12-18T15:43:28;-1.30;99.90
53053;DHT22;38934;52.690;6.184;2022-12-18T15:46:03;-1.30;99.90
53053;DHT22;38934;52.690;6.184;2022-12-18T15:48:29;-1.30;99.90
53053;DHT22;38934;52.690;6.184;2022-12-18T15:50:56;-1.30;99.90
53053;DHT22;38934;52.690;6.184;2022-12-18T15:53:25;-1.30;99.90
53053;DHT22;38934;52.690;6.184;2022-12-18T15:55:53;-1.30;99.90
53053;DHT22;38934;52.690;6.184;2022-12-18T15:58:37;-1.30;99.90
53053;DHT22;38934;52.690;6.184;2022-12-18T16:01:04;-1.30;99.90
53053;DHT22;38934;52.690;6.184;2022-12-18T16:03:29;-1.30;99.90
53053;DHT22;38934;52.690;6.184;2022-12-18T16:05:55;-1.30;99.90
53053;DHT22;38934;52.690;6.184;2022-12-18T16:08:20;-1.20;99.90
53053;DHT22;38934;52.690;6.184;2022-12-18T16:10:46;-1.20;99.90
53053;DHT22;38934;52.690;6.184;2022-12-18T16:13:15;-1.20;99.90
53053;DHT22;38934;52.690;6.184;2022-12-18T16:15:41;-1.20;99.90
53053;DHT22;38934;52.690;6.184;2022-12-18T16:18:07;-1.20;99.90
53053;DHT22;38934;52.690;6.184;2022-12-18T16:20:32;-1.20;99.90
53053;DHT22;38934;52.690;6.184;2022-12-18T16:22:58;-1.20;99.90
53053;DHT22;38934;52.690;6.184;2022-12-18T16:25:26;-1.20;99.90
53053;DHT22;38934;52.690;6.184;2022-12-18T16:27:54;-1.20;99.90
53053;DHT22;38934;52.690;6.184;2022-12-18T16:30:31;-1.20;99.90
53053;DHT22;38934;52.690;6.184;2022-12-18T16:32:57;-1.20;99.90
53053;DHT22;38934;52.690;6.184;2022-12-18T16:35:24;-1.10;99.90
53053;DHT22;38934;52.690;6.184;2022-12-18T16:37:50;-1.10;99.90
53053;DHT22;38934;52.690;6.184;2022-12-18T16:40:16;-1.20;99.90
53053;DHT22;38934;52.690;6.184;2022-12-18T16:42:44;-1.10;99.90
53053;DHT22;38934;52.690;6.184;2022-12-18T16:45:13;-1.20;99.90
53053;DHT22;38934;52.690;6.184;2022-12-18T16:47:40;-1.10;99.90
53053;DHT22;38934;52.690;6.184;2022-12-18T16:50:06;-1.10;99.90
53053;DHT22;38934;52.690;6.184;2022-12-18T16:52:32;-1.10;99.90
53053;DHT22;38934;52.690;6.184;2022-12-18T16:54:58;-1.10;99.90
53053;DHT22;38934;52.690;6.184;2022-12-18T16:57:24;-1.10;99.90
53053;DHT22;38934;52.690;6.184;2022-12-18T16:59:49;-1.10;99.90
53053;DHT22;38934;52.690;6.184;2022-12-18T17:02:20;-1.10;99.90
53053;DHT22;38934;52.690;6.184;2022-12-18T17:04:46;-1.10;99.90
53053;DHT22;38934;52.690;6.184;2022-12-18T17:07:13;-1.10;99.90
53053;DHT22;38934;52.690;6.184;2022-12-18T17:09:39;-1.10;99.90
53053;DHT22;38934;52.690;6.184;2022-12-18T17:12:04;-1.10;99.90
53053;DHT22;38934;52.690;6.184;2022-12-18T17:14:31;-1.00;99.90
53053;DHT22;38934;52.690;6.184;2022-12-18T17:16:57;-1.00;99.90
53053;DHT22;38934;52.690;6.184;2022-12-18T17:19:24;-1.00;99.90
53053;DHT22;38934;52.690;6.184;2022-12-18T17:21:51;-1.00;99.90
53053;DHT22;38934;52.690;6.184;2022-12-18T17:24:18;-1.00;99.90
53053;DHT22;38934;52.690;6.184;2022-12-18T17:26:44;-1.00;99.90
53053;DHT22;38934;52.690;6.184;2022-12-18T17:29:13;-1.00;99.90
53053;DHT22;38934;52.690;6.184;2022-12-18T17:31:39;-1.00;99.90
53053;DHT22;38934;52.690;6.184;2022-12-18T17:34:05;-1.00;99.90
53053;DHT22;38934;52.690;6.184;2022-12-18T17:36:30;-1.00;99.90
53053;DHT22;38934;52.690;6.184;2022-12-18T17:38:58;-1.00;99.90
53053;DHT22;38934;52.690;6.184;2022-12-18T17:41:25;-1.00;99.90
53053;DHT22;38934;52.690;6.184;2022-12-18T17:43:56;-1.00;99.90
53053;DHT22;38934;52.690;6.184;2022-12-18T17:46:23;-1.00;99.90
53053;DHT22;38934;52.690;6.184;2022-12-18T17:48:49;-0.90;99.90
53053;DHT22;38934;52.690;6.184;2022-12-18T17:51:16;-0.90;99.90
53053;DHT22;38934;52.690;6.184;2022-12-18T17:53:42;-0.90;99.90